Arcadia, Nebraska
Current Conditions -  °F | °C
As of 2:53 AM on Thursday 23 Oct 2014 (Local Time) from KODX Reporting Station
Moderate Fog Moderate Fog  
Wind Chill: 41°   Ceiling: 200
Heat Index: 41°   Visibility: 0.25mi
Dew Point: 41°   Wind: 3mph
Humidity: 100%   Direction: 260°W
Pressure: 30.06"   Gusts: NA
Location:  41.42°N, 99.13°W
Report Text: KODX 230753Z AUTO 26003KT 1/4SM FG VV002 05/05 A3006 RMK AO2 SLP184 T00500050 $
Loading
Personal Weather Stations






























Interactive Weather Map
Tropical Storm Tracking
New forecast layout! Learn more

10-Day Weather Forecast

Advertisements
Track Severe Weather on mobile